Terminal Aerodrome Forecast
Issued by NWS

Home | Current Version | Previous Version | Graphics & Text | Print | Product List | Glossary On
Versions: 1 2 3 4 5 6 7 8 9 10 11 12 13 14 15 16 17
000
FTUS43 KMPX 061720
TAFRWF
TAF
KRWF 061720Z 0618/0718 34012G20KT 2SM HZ SCT025 BKN050
     FM062000 34011G18KT 5SM HZ SCT035 BKN100
     FM070000 32007KT P6SM SKC
     FM071500 03005KT P6SM FEW040=

USA.gov is the U.S. government's official web portal to all federal, state and local government web resources and services.